Time;durP1;ratioP1;P1;durP2;ratioP2;P2;SDS_P1;SDS_P2;PMS_P1;PMS_P2;Temp;Humidity;BMP_temperature;BMP_pressure;BME280_temperature;BME280_humidity;BME280_pressure;Samples;Min_cycle;Max_cycle;Signal;HPM_P1;HPM_P2
2023/08/17 00:01:26;;;;;;;3.83;3.53;;;25.10;94.50;;;;;;5022630;28;20418;-71
2023/08/17 00:03:54;;;;;;;3.77;3.47;;;25.10;94.50;;;;;;5022645;28;20423;-71
2023/08/17 00:06:22;;;;;;;4.30;3.90;;;25.10;94.50;;;;;;5022864;28;20431;-71
2023/08/17 00:08:48;;;;;;;3.87;3.50;;;25.10;94.50;;;;;;5022441;28;20440;-71
2023/08/17 00:11:18;;;;;;;4.37;3.90;;;25.10;94.50;;;;;;5024284;28;20219;-71
2023/08/17 00:13:52;;;;;;;3.87;3.47;;;25.10;94.50;;;;;;5022476;28;20538;-71
2023/08/17 00:16:20;;;;;;;4.07;3.77;;;25.10;94.50;;;;;;5024354;28;20453;-71
2023/08/17 00:18:46;;;;;;;3.73;3.50;;;25.10;94.50;;;;;;5032666;28;20435;-71
2023/08/17 00:21:12;;;;;;;5.40;3.80;;;25.10;94.60;;;;;;5025959;28;21055;-71
2023/08/17 00:23:40;;;;;;;3.20;2.93;;;25.00;94.50;;;;;;5021920;28;20205;-71
2023/08/17 00:26:11;;;;;;;3.50;3.20;;;25.00;94.50;;;;;;5016558;28;20473;-71
2023/08/17 00:28:39;;;;;;;3.80;3.43;;;25.00;94.50;;;;;;5021702;28;20994;-71
2023/08/17 00:31:08;;;;;;;3.77;3.47;;;25.00;94.50;;;;;;5023065;28;20427;-71
2023/08/17 00:33:38;;;;;;;4.10;3.60;;;25.00;94.60;;;;;;4989455;28;20449;-71
2023/08/17 00:36:07;;;;;;;3.90;3.60;;;24.90;94.60;;;;;;5005427;28;20403;-71
2023/08/17 00:38:36;;;;;;;4.43;3.47;;;24.90;94.60;;;;;;5005071;28;21043;-71
2023/08/17 00:41:02;;;;;;;4.00;3.63;;;24.90;94.60;;;;;;5005789;28;20561;-71
2023/08/17 00:43:28;;;;;;;4.17;3.77;;;24.90;94.60;;;;;;4989268;28;20453;-71
2023/08/17 00:45:57;;;;;;;4.73;3.63;;;24.90;94.60;;;;;;4989272;28;20882;-71
2023/08/17 00:48:24;;;;;;;3.53;3.33;;;24.90;94.60;;;;;;4989060;28;20427;-71
2023/08/17 00:50:52;;;;;;;4.53;3.67;;;24.90;94.70;;;;;;5022571;28;20431;-71
2023/08/17 00:53:20;;;;;;;4.60;3.90;;;24.90;94.70;;;;;;4972689;28;20449;-71
2023/08/17 00:55:49;;;;;;;3.60;3.30;;;24.90;94.70;;;;;;5004626;28;21232;-71
2023/08/17 00:58:17;;;;;;;4.33;3.20;;;24.80;94.60;;;;;;5005112;28;20407;-71
2023/08/17 01:00:45;;;;;;;4.83;4.13;;;24.80;94.60;;;;;;5022134;28;20996;-71
2023/08/17 01:06:08;;;;;;;3.70;3.40;;;24.80;94.60;;;;;;4149262;26;20524;-71
2023/08/17 01:08:34;;;;;;;3.77;3.47;;;24.80;94.60;;;;;;4986170;28;20519;-71
2023/08/17 01:11:15;;;;;;;3.63;3.40;;;24.80;94.60;;;;;;4986634;28;20431;-71
2023/08/17 01:14:04;;;;;;;3.57;3.27;;;24.80;94.60;;;;;;5018119;28;20459;-70
2023/08/17 01:16:42;;;;;;;3.90;3.60;;;24.70;94.60;;;;;;5002468;28;20460;-70
2023/08/17 01:19:19;;;;;;;3.60;3.40;;;24.70;94.60;;;;;;5015948;28;20419;-71
2023/08/17 01:21:54;;;;;;;3.47;3.17;;;24.70;94.70;;;;;;5006008;28;20439;-71
2023/08/17 01:24:25;;;;;;;4.10;3.20;;;24.70;94.70;;;;;;5021742;28;20427;-70
2023/08/17 01:26:53;;;;;;;3.43;3.10;;;24.70;94.70;;;;;;4990046;28;20453;-71
2023/08/17 01:29:20;;;;;;;3.27;3.00;;;24.70;94.70;;;;;;5004287;28;20455;-71
2023/08/17 01:31:58;;;;;;;3.53;3.23;;;24.70;94.80;;;;;;4986356;28;20432;-71
2023/08/17 01:34:33;;;;;;;3.40;3.20;;;24.70;94.80;;;;;;5002285;28;21044;-71
2023/08/17 01:37:01;;;;;;;3.40;3.10;;;24.60;94.70;;;;;;4986454;28;20428;-71
2023/08/17 01:39:39;;;;;;;3.00;2.80;;;24.60;94.70;;;;;;4986533;28;20456;-71
2023/08/17 01:42:06;;;;;;;3.60;3.30;;;24.60;94.70;;;;;;4970453;28;20455;-71
2023/08/17 01:44:32;;;;;;;3.77;3.47;;;24.60;94.70;;;;;;5002163;28;20420;-71
2023/08/17 01:46:59;;;;;;;3.67;3.37;;;24.50;94.80;;;;;;5002589;28;20436;-71
2023/08/17 01:49:29;;;;;;;4.90;3.30;;;24.60;94.90;;;;;;4993638;28;20776;-71
2023/08/17 01:52:02;;;;;;;3.30;3.10;;;24.50;94.80;;;;;;4984547;28;20492;-70
2023/08/17 01:54:28;;;;;;;3.50;3.20;;;24.50;94.80;;;;;;4982823;28;20443;-71
2023/08/17 01:56:55;;;;;;;3.47;3.17;;;24.50;94.80;;;;;;4986201;28;20440;-70
2023/08/17 01:59:21;;;;;;;4.00;3.60;;;24.50;94.80;;;;;;4986588;28;20460;-71
2023/08/17 02:01:52;;;;;;;4.50;3.27;;;24.50;94.80;;;;;;4992115;28;20460;-71
2023/08/17 02:04:21;;;;;;;3.10;2.90;;;24.50;94.90;;;;;;5003015;28;20444;-71
2023/08/17 02:06:49;;;;;;;3.20;2.93;;;24.50;94.90;;;;;;5011151;28;20427;-71
2023/08/17 02:09:18;;;;;;;3.40;3.20;;;24.50;94.90;;;;;;5006442;28;20435;-71
2023/08/17 02:11:44;;;;;;;3.57;3.37;;;24.40;94.90;;;;;;5005994;28;20449;-71
2023/08/17 02:14:12;;;;;;;3.77;3.47;;;24.40;94.80;;;;;;5022031;28;20411;-71
2023/08/17 02:16:38;;;;;;;3.07;2.87;;;24.40;94.90;;;;;;5005909;28;20522;-70
2023/08/17 02:19:04;;;;;;;3.53;3.27;;;24.40;94.80;;;;;;5015348;28;20436;-71
2023/08/17 02:21:31;;;;;;;3.80;3.60;;;24.40;94.80;;;;;;4970627;28;20437;-71
2023/08/17 02:23:57;;;;;;;3.20;3.00;;;24.40;94.80;;;;;;5003673;28;20487;-71
2023/08/17 02:26:25;;;;;;;3.20;2.90;;;24.40;94.80;;;;;;5006107;28;20450;-71
2023/08/17 02:28:51;;;;;;;4.83;3.30;;;24.40;94.80;;;;;;4989799;28;20694;-71
2023/08/17 02:31:17;;;;;;;3.77;3.47;;;24.40;94.80;;;;;;5006153;28;20583;-71
2023/08/17 02:33:45;;;;;;;3.33;3.07;;;24.40;94.90;;;;;;5005640;28;20436;-71
2023/08/17 02:36:11;;;;;;;4.00;3.70;;;24.40;94.90;;;;;;4989485;28;20941;-71
2023/08/17 02:38:38;;;;;;;3.50;3.20;;;24.40;94.90;;;;;;4973665;28;20474;-71
2023/08/17 02:41:04;;;;;;;3.30;3.00;;;24.30;94.80;;;;;;5006042;28;20497;-71
2023/08/17 02:43:31;;;;;;;4.17;3.80;;;24.30;94.90;;;;;;4973609;28;20448;-71
2023/08/17 02:46:01;;;;;;;3.57;3.27;;;24.30;94.80;;;;;;4989630;28;20867;-71
2023/08/17 02:48:27;;;;;;;4.87;3.90;;;24.40;94.90;;;;;;4989374;28;20426;-71
2023/08/17 02:50:54;;;;;;;3.90;3.60;;;24.30;94.90;;;;;;5006060;28;20434;-70
2023/08/17 02:53:22;;;;;;;3.27;3.07;;;24.30;94.90;;;;;;4989112;28;20460;-71
2023/08/17 02:55:50;;;;;;;3.50;3.30;;;24.30;94.90;;;;;;4998472;28;20439;-71
2023/08/17 02:58:19;;;;;;;3.77;3.47;;;24.30;94.90;;;;;;4995091;28;20209;-71
2023/08/17 03:00:45;;;;;;;3.17;2.97;;;24.30;94.90;;;;;;5005613;28;21014;-71
2023/08/17 03:03:11;;;;;;;3.47;3.17;;;24.20;94.90;;;;;;5006494;28;20472;-71
2023/08/17 03:05:37;;;;;;;3.10;2.90;;;24.20;94.80;;;;;;5004746;28;20494;-71
2023/08/17 03:08:06;;;;;;;3.47;3.27;;;24.20;94.90;;;;;;4984789;28;20440;-71
2023/08/17 03:10:35;;;;;;;4.00;3.63;;;24.20;94.90;;;;;;5024925;28;20438;-71
2023/08/17 03:13:01;;;;;;;3.77;3.50;;;24.20;94.90;;;;;;5011842;28;20448;-71
2023/08/17 03:15:29;;;;;;;3.70;3.50;;;24.20;94.90;;;;;;5005376;28;20483;-71
2023/08/17 03:17:55;;;;;;;4.13;3.77;;;24.20;94.90;;;;;;5005115;28;20429;-71
2023/08/17 03:20:22;;;;;;;3.57;3.30;;;24.20;94.90;;;;;;5005119;28;20554;-71
2023/08/17 03:22:48;;;;;;;3.97;3.67;;;24.20;94.90;;;;;;4988689;28;20439;-71
2023/08/17 03:25:14;;;;;;;3.23;3.03;;;24.20;94.90;;;;;;4997610;28;20467;-71
2023/08/17 03:27:45;;;;;;;3.40;3.20;;;24.10;94.80;;;;;;5004363;28;20217;-71
2023/08/17 03:30:13;;;;;;;3.70;3.23;;;24.10;94.90;;;;;;4998109;28;20423;-71
2023/08/17 03:32:42;;;;;;;3.97;3.53;;;24.10;94.90;;;;;;5025427;28;20544;-71
2023/08/17 03:35:08;;;;;;;3.90;3.60;;;24.10;94.90;;;;;;5023653;28;20416;-71
2023/08/17 03:37:35;;;;;;;4.30;4.00;;;24.10;94.90;;;;;;5023877;28;20416;-71
2023/08/17 03:40:02;;;;;;;3.67;3.40;;;24.10;94.90;;;;;;5025865;28;20462;-70
2023/08/17 03:42:31;;;;;;;3.80;3.50;;;24.10;94.90;;;;;;5014803;28;20459;-71
2023/08/17 03:44:57;;;;;;;3.83;3.53;;;24.10;94.90;;;;;;5007876;28;20442;-71
2023/08/17 03:47:23;;;;;;;3.77;3.57;;;24.10;94.90;;;;;;5024163;28;20423;-70
2023/08/17 03:49:51;;;;;;;3.77;3.47;;;24.10;94.90;;;;;;5023951;28;20501;-71
2023/08/17 03:52:17;;;;;;;4.30;3.90;;;24.00;94.90;;;;;;5023678;28;21107;-71
2023/08/17 03:54:45;;;;;;;3.80;3.50;;;24.00;94.90;;;;;;5007203;28;20441;-71
2023/08/17 03:57:11;;;;;;;3.73;3.53;;;24.00;94.90;;;;;;5007900;28;20466;-71
2023/08/17 03:59:37;;;;;;;3.57;3.30;;;24.00;94.90;;;;;;5023938;28;20459;-71
2023/08/17 04:02:04;;;;;;;4.10;3.80;;;24.00;94.90;;;;;;5025063;28;20882;-71
2023/08/17 04:04:33;;;;;;;3.90;3.60;;;24.00;94.90;;;;;;5023452;28;20449;-70
2023/08/17 04:07:02;;;;;;;4.53;3.60;;;24.00;94.90;;;;;;4999519;28;20476;-71
2023/08/17 04:09:33;;;;;;;3.87;3.57;;;23.90;95.00;;;;;;4987854;28;20519;-70
2023/08/17 04:11:59;;;;;;;3.90;3.60;;;23.90;94.90;;;;;;4987481;28;20472;-71
2023/08/17 04:14:26;;;;;;;4.60;4.20;;;23.90;94.90;;;;;;5002899;28;20425;-71
2023/08/17 04:16:53;;;;;;;4.00;3.80;;;23.90;94.90;;;;;;4984168;28;20502;-71
2023/08/17 04:19:22;;;;;;;4.30;4.00;;;23.90;94.90;;;;;;4977670;28;20424;-71
2023/08/17 04:21:48;;;;;;;4.40;4.00;;;23.90;94.90;;;;;;4995723;28;20417;-71
2023/08/17 04:24:17;;;;;;;4.50;4.13;;;23.90;94.90;;;;;;4967720;28;20521;-71
2023/08/17 04:26:46;;;;;;;4.33;4.03;;;23.90;94.90;;;;;;4977912;28;20453;-72
2023/08/17 04:29:13;;;;;;;3.80;3.50;;;23.90;94.90;;;;;;5003180;28;20492;-71
2023/08/17 04:31:41;;;;;;;4.17;3.87;;;23.80;94.90;;;;;;5007848;28;20412;-70
2023/08/17 04:34:08;;;;;;;3.83;3.53;;;23.80;94.90;;;;;;5021110;28;20865;-71
2023/08/17 04:36:38;;;;;;;3.70;3.40;;;23.80;94.90;;;;;;5021383;28;20426;-71
2023/08/17 04:39:05;;;;;;;4.13;3.73;;;23.80;95.30;;;;;;5021667;28;20176;-71
2023/08/17 04:41:34;;;;;;;4.13;3.73;;;23.80;94.90;;;;;;4998007;28;20428;-71
2023/08/17 04:44:05;;;;;;;4.50;4.10;;;23.80;94.90;;;;;;5008300;28;21245;-71
2023/08/17 04:46:33;;;;;;;3.60;3.40;;;23.80;94.90;;;;;;5021024;28;20497;-71
2023/08/17 04:49:00;;;;;;;4.03;3.73;;;23.80;94.90;;;;;;5005507;28;20498;-70
2023/08/17 04:51:30;;;;;;;3.93;3.63;;;23.80;94.90;;;;;;5005216;28;20489;-70
2023/08/17 04:54:02;;;;;;;4.03;3.63;;;23.80;94.90;;;;;;5005657;28;20423;-71
2023/08/17 04:56:30;;;;;;;3.53;3.20;;;23.80;94.90;;;;;;5005591;28;20427;-71
2023/08/17 04:59:01;;;;;;;3.37;3.17;;;23.70;94.80;;;;;;5010564;28;20420;-71
2023/08/17 05:01:32;;;;;;;4.27;4.00;;;23.70;94.90;;;;;;4997980;28;20531;-71
2023/08/17 05:04:04;;;;;;;4.50;3.53;;;23.70;94.80;;;;;;4982350;28;20417;-71
2023/08/17 05:06:38;;;;;;;4.20;3.80;;;23.70;94.80;;;;;;4967191;28;20467;-71
2023/08/17 05:09:06;;;;;;;3.87;3.60;;;23.70;94.80;;;;;;4983913;28;21121;-72
2023/08/17 05:11:33;;;;;;;3.70;3.37;;;23.70;94.80;;;;;;4969396;28;20445;-70
2023/08/17 05:14:05;;;;;;;3.83;3.33;;;23.70;94.80;;;;;;4978603;28;20444;-70
2023/08/17 05:16:32;;;;;;;4.03;3.73;;;23.70;94.90;;;;;;4966890;28;20444;-70
2023/08/17 05:19:00;;;;;;;4.23;3.83;;;23.70;94.90;;;;;;4966908;28;20424;-72
2023/08/17 05:21:29;;;;;;;5.03;4.10;;;23.70;94.90;;;;;;4966334;28;20544;-69
2023/08/17 05:23:56;;;;;;;4.40;3.93;;;23.60;94.80;;;;;;4984066;28;20435;-69
2023/08/17 05:26:22;;;;;;;3.80;3.43;;;23.60;94.80;;;;;;4996944;28;20551;-69
2023/08/17 05:28:48;;;;;;;3.93;3.63;;;23.60;94.90;;;;;;5003957;28;20436;-69
2023/08/17 05:31:18;;;;;;;4.17;3.87;;;23.60;94.80;;;;;;4980865;28;20456;-69
2023/08/17 05:33:47;;;;;;;4.37;4.07;;;23.60;94.80;;;;;;4982313;28;20441;-69
2023/08/17 05:36:16;;;;;;;5.50;3.90;;;23.60;94.80;;;;;;4983753;28;20468;-69
2023/08/17 05:38:45;;;;;;;4.00;3.80;;;23.60;94.80;;;;;;4984047;28;21175;-68
2023/08/17 05:41:13;;;;;;;4.13;3.83;;;23.60;95.20;;;;;;4994050;28;20499;-68
2023/08/17 05:43:46;;;;;;;4.57;4.17;;;23.60;94.90;;;;;;5002728;28;20951;-70
2023/08/17 05:46:12;;;;;;;4.13;3.73;;;23.60;94.90;;;;;;5002892;28;20416;-68
2023/08/17 05:48:39;;;;;;;4.20;3.80;;;23.60;94.90;;;;;;4969324;28;20948;-68
2023/08/17 05:51:05;;;;;;;3.80;3.50;;;23.50;95.20;;;;;;5001016;28;20436;-68
2023/08/17 05:53:31;;;;;;;5.27;4.03;;;23.50;94.80;;;;;;5002228;28;20452;-68
2023/08/17 05:55:57;;;;;;;4.33;3.93;;;23.50;94.90;;;;;;5000905;28;20323;-69
2023/08/17 05:58:26;;;;;;;4.43;4.07;;;23.50;94.90;;;;;;4994310;28;20425;-69
2023/08/17 06:00:53;;;;;;;4.80;4.37;;;23.50;94.90;;;;;;4970102;28;20592;-69
2023/08/17 06:03:19;;;;;;;5.57;5.07;;;23.50;94.90;;;;;;4970238;28;21146;-70
2023/08/17 06:05:45;;;;;;;5.10;4.70;;;23.50;95.00;;;;;;4986473;28;20452;-68
2023/08/17 06:08:16;;;;;;;4.20;3.90;;;23.50;95.00;;;;;;4986673;28;20832;-69
2023/08/17 06:10:49;;;;;;;4.60;4.20;;;23.50;94.90;;;;;;4989238;28;21038;-69
2023/08/17 06:13:15;;;;;;;5.23;4.73;;;23.50;95.00;;;;;;5006703;28;20446;-68
2023/08/17 06:15:44;;;;;;;4.97;4.47;;;23.40;94.90;;;;;;5005397;28;20438;-69
2023/08/17 06:18:15;;;;;;;5.77;5.17;;;23.40;95.00;;;;;;5006588;28;20474;-68
2023/08/17 06:20:48;;;;;;;5.20;4.70;;;23.40;95.00;;;;;;5005313;28;20475;-69
2023/08/17 06:23:14;;;;;;;5.20;4.77;;;23.40;95.10;;;;;;5005124;28;20432;-68
2023/08/17 06:25:40;;;;;;;5.87;5.37;;;23.40;95.10;;;;;;5005186;28;21083;-69
2023/08/17 06:28:06;;;;;;;5.13;4.73;;;23.40;95.10;;;;;;5005191;28;20411;-69
2023/08/17 06:30:35;;;;;;;4.97;4.43;;;23.40;95.10;;;;;;4989105;28;20526;-69
2023/08/17 06:33:05;;;;;;;5.60;5.20;;;23.40;95.10;;;;;;5006256;28;20502;-69
2023/08/17 06:35:33;;;;;;;5.73;5.23;;;23.40;95.50;;;;;;4989418;28;20423;-68
2023/08/17 06:38:02;;;;;;;5.70;5.30;;;23.40;95.10;;;;;;5005408;28;20482;-69
2023/08/17 06:40:33;;;;;;;5.60;4.90;;;23.30;95.10;;;;;;5005329;28;20217;-68
2023/08/17 06:43:01;;;;;;;5.73;5.13;;;23.40;95.10;;;;;;5004190;28;20952;-69
2023/08/17 06:45:27;;;;;;;5.50;5.10;;;23.30;95.10;;;;;;5005287;28;20995;-68
2023/08/17 06:47:53;;;;;;;5.83;5.33;;;23.30;95.10;;;;;;5005635;28;20451;-69
2023/08/17 06:50:23;;;;;;;5.83;5.37;;;23.30;95.10;;;;;;4988910;28;20474;-69
2023/08/17 06:52:51;;;;;;;6.80;6.20;;;23.30;95.10;;;;;;4988624;28;20219;-68
2023/08/17 06:55:17;;;;;;;5.90;5.40;;;23.30;95.20;;;;;;5006026;28;20428;-69
2023/08/17 06:57:45;;;;;;;5.53;5.13;;;23.30;95.20;;;;;;4989340;28;20451;-69
2023/08/17 07:00:12;;;;;;;6.10;5.70;;;23.30;95.20;;;;;;5006159;28;20459;-69
2023/08/17 07:02:40;;;;;;;5.93;5.53;;;23.30;95.20;;;;;;5005454;28;20431;-69
2023/08/17 07:05:06;;;;;;;7.30;6.50;;;23.30;95.20;;;;;;5005708;28;21075;-68
2023/08/17 07:07:33;;;;;;;6.00;5.50;;;23.30;95.20;;;;;;5006621;28;20537;-69
2023/08/17 07:10:07;;;;;;;5.97;5.50;;;23.30;95.20;;;;;;5006258;28;20434;-69
2023/08/17 07:12:37;;;;;;;6.13;5.63;;;23.30;95.20;;;;;;5005299;28;20462;-69
2023/08/17 07:15:06;;;;;;;7.20;6.10;;;23.30;95.20;;;;;;4988983;28;20510;-68
2023/08/17 07:17:34;;;;;;;6.10;5.30;;;23.30;95.30;;;;;;5006998;28;20436;-69
2023/08/17 07:20:00;;;;;;;6.40;5.83;;;23.20;95.20;;;;;;4989136;28;20468;-69
2023/08/17 07:22:26;;;;;;;6.33;5.77;;;23.30;95.30;;;;;;5004990;28;20491;-69
2023/08/17 07:24:55;;;;;;;6.87;6.17;;;23.20;95.30;;;;;;5004340;28;20518;-69
2023/08/17 07:27:28;;;;;;;6.30;5.80;;;23.30;95.30;;;;;;5004749;28;20416;-69
2023/08/17 07:29:57;;;;;;;6.30;5.80;;;23.20;95.30;;;;;;5006308;28;20436;-69
2023/08/17 07:32:27;;;;;;;6.60;6.00;;;23.20;95.30;;;;;;5004254;28;20447;-69
2023/08/17 07:34:53;;;;;;;6.77;6.17;;;23.20;95.30;;;;;;5003851;28;20429;-68
2023/08/17 07:37:20;;;;;;;6.93;6.37;;;23.20;95.30;;;;;;5004129;28;20482;-69
2023/08/17 07:39:46;;;;;;;7.83;7.00;;;23.20;95.30;;;;;;4988333;28;20491;-68
2023/08/17 07:42:12;;;;;;;7.63;6.83;;;23.20;95.30;;;;;;4988026;28;20965;-69
2023/08/17 07:44:39;;;;;;;7.37;6.67;;;23.20;95.40;;;;;;5005732;28;20405;-69
2023/08/17 07:47:11;;;;;;;7.20;6.60;;;23.20;95.40;;;;;;5006121;28;20466;-68
2023/08/17 07:49:40;;;;;;;9.27;7.07;;;23.20;95.40;;;;;;5005202;28;20956;-69
2023/08/17 07:52:12;;;;;;;8.93;6.53;;;23.20;95.40;;;;;;4988026;28;20550;-69
2023/08/17 07:54:38;;;;;;;8.17;6.43;;;23.10;95.40;;;;;;4988044;28;20427;-69
2023/08/17 07:57:09;;;;;;;7.90;7.20;;;23.20;95.50;;;;;;5004106;28;20428;-68
2023/08/17 07:59:35;;;;;;;7.77;6.90;;;23.20;95.40;;;;;;4987340;28;20480;-69
2023/08/17 08:02:01;;;;;;;7.43;6.73;;;23.20;95.40;;;;;;5003863;28;20992;-69
2023/08/17 08:04:27;;;;;;;8.10;7.30;;;23.10;95.40;;;;;;4987956;28;20465;-68
2023/08/17 08:06:56;;;;;;;7.37;6.87;;;23.20;95.50;;;;;;4987405;28;20438;-68
2023/08/17 08:09:23;;;;;;;7.27;6.67;;;23.10;95.40;;;;;;5002957;28;20949;-69
2023/08/17 08:11:49;;;;;;;8.60;7.90;;;23.10;95.40;;;;;;4994567;28;20483;-68
2023/08/17 08:14:18;;;;;;;10.50;7.90;;;23.10;95.50;;;;;;4982949;28;21199;-69
2023/08/17 08:16:45;;;;;;;8.03;7.10;;;23.10;95.50;;;;;;4982964;28;20449;-68
2023/08/17 08:19:11;;;;;;;8.23;7.40;;;23.10;95.50;;;;;;4984992;28;20431;-69
2023/08/17 08:21:39;;;;;;;10.70;7.50;;;23.10;95.50;;;;;;4983908;28;20476;-69
2023/08/17 08:24:08;;;;;;;8.00;7.30;;;23.10;95.50;;;;;;4966793;28;20426;-69
2023/08/17 08:26:35;;;;;;;8.50;7.43;;;23.10;95.50;;;;;;4982911;28;20429;-69
2023/08/17 08:29:06;;;;;;;9.80;7.40;;;23.10;95.50;;;;;;4983379;28;20994;-69
2023/08/17 08:31:34;;;;;;;7.87;7.17;;;23.10;95.60;;;;;;4983079;28;20429;-69
2023/08/17 08:34:03;;;;;;;8.50;7.33;;;23.10;95.60;;;;;;4983055;28;20449;-69
2023/08/17 08:36:29;;;;;;;8.43;7.83;;;23.10;95.60;;;;;;4983909;28;20456;-69
2023/08/17 08:38:59;;;;;;;7.53;6.83;;;23.10;95.60;;;;;;4998872;28;20522;-69
2023/08/17 08:41:27;;;;;;;8.10;7.30;;;23.10;95.60;;;;;;4982526;28;20888;-69
2023/08/17 08:43:54;;;;;;;8.27;7.67;;;23.10;95.60;;;;;;4966164;28;20999;-68
2023/08/17 08:46:26;;;;;;;8.43;7.73;;;23.10;95.60;;;;;;4982342;28;20526;-69
2023/08/17 08:48:56;;;;;;;9.10;7.63;;;23.10;95.70;;;;;;4982969;28;20844;-69
2023/08/17 08:51:28;;;;;;;8.00;7.20;;;23.10;95.70;;;;;;4999418;28;20424;-69
2023/08/17 08:54:03;;;;;;;8.73;7.87;;;23.10;95.70;;;;;;4967281;28;20868;-69
2023/08/17 08:56:33;;;;;;;8.83;8.03;;;23.10;95.70;;;;;;4983640;28;20427;-69
2023/08/17 08:59:04;;;;;;;8.20;7.43;;;23.10;95.80;;;;;;4983910;28;20986;-69
2023/08/17 09:01:32;;;;;;;7.73;7.03;;;23.00;95.80;;;;;;4983936;28;20469;-69
2023/08/17 09:04:01;;;;;;;8.43;7.73;;;23.00;95.70;;;;;;4982639;28;20417;-69
2023/08/17 09:06:30;;;;;;;8.70;8.00;;;23.00;95.70;;;;;;4982225;28;20439;-68
2023/08/17 09:08:59;;;;;;;8.10;7.40;;;23.00;95.70;;;;;;4998519;28;20535;-69
2023/08/17 09:11:29;;;;;;;8.17;7.40;;;23.00;95.70;;;;;;4982494;28;20492;-69
2023/08/17 09:13:58;;;;;;;8.83;8.03;;;23.00;95.80;;;;;;5028565;23;21217;-69
2023/08/17 09:16:31;;;;;;;7.93;7.10;;;23.00;95.80;;;;;;5044144;28;20426;-69
2023/08/17 09:19:07;;;;;;;8.33;7.70;;;23.00;95.80;;;;;;5043346;28;20446;-69
2023/08/17 09:21:34;;;;;;;8.30;7.63;;;23.10;95.80;;;;;;5025024;28;20476;-69
2023/08/17 09:24:03;;;;;;;8.40;7.60;;;23.00;95.90;;;;;;5043366;28;20402;-69
2023/08/17 09:26:36;;;;;;;8.73;7.93;;;23.00;95.80;;;;;;5043411;28;20765;-69
2023/08/17 09:29:18;;;;;;;8.20;7.50;;;23.00;96.20;;;;;;5025260;28;20422;-68
2023/08/17 09:31:50;;;;;;;8.33;7.63;;;23.00;95.90;;;;;;5025269;28;20399;-69
2023/08/17 09:34:22;;;;;;;8.90;8.10;;;23.00;95.90;;;;;;5023930;28;21174;-69
2023/08/17 09:36:48;;;;;;;8.87;8.17;;;23.00;95.90;;;;;;5008560;28;20511;-68
2023/08/17 09:39:19;;;;;;;8.73;8.03;;;23.00;95.90;;;;;;5025122;28;20415;-68
2023/08/17 09:41:48;;;;;;;8.60;7.83;;;23.00;95.90;;;;;;5042407;28;20477;-69
2023/08/17 09:44:19;;;;;;;8.27;7.50;;;23.00;95.90;;;;;;5008621;28;21352;-68
2023/08/17 09:46:45;;;;;;;8.77;7.90;;;23.00;95.90;;;;;;5025431;28;20426;-69
2023/08/17 09:49:11;;;;;;;8.73;8.00;;;23.00;95.90;;;;;;5042843;28;21118;-68
2023/08/17 09:51:37;;;;;;;8.53;7.73;;;23.00;95.90;;;;;;5025022;28;20903;-69
2023/08/17 09:54:04;;;;;;;8.70;8.00;;;23.00;96.00;;;;;;5025074;28;20398;-69
2023/08/17 09:56:31;;;;;;;8.90;8.10;;;23.00;96.00;;;;;;5025055;28;20839;-68
2023/08/17 09:58:57;;;;;;;9.17;8.17;;;23.00;96.00;;;;;;5008901;28;21037;-69
2023/08/17 10:01:27;;;;;;;9.30;8.50;;;23.00;96.00;;;;;;5024814;28;20557;-69
2023/08/17 10:03:56;;;;;;;14.43;8.20;;;23.00;95.90;;;;;;5042876;28;20441;-69
2023/08/17 10:06:29;;;;;;;9.47;8.70;;;23.00;96.00;;;;;;5024743;28;20433;-68
2023/08/17 10:08:58;;;;;;;8.50;7.80;;;23.00;96.00;;;;;;5024725;28;20497;-69
2023/08/17 10:11:26;;;;;;;8.83;8.13;;;23.00;96.10;;;;;;5008070;28;20419;-69
2023/08/17 10:14:02;;;;;;;9.87;8.90;;;23.00;96.00;;;;;;5042345;28;20465;-69
2023/08/17 10:16:45;;;;;;;9.80;9.00;;;23.00;96.00;;;;;;5042467;28;20407;-68
2023/08/17 10:19:37;;;;;;;10.70;9.60;;;23.00;96.10;;;;;;5043187;28;20457;-69
2023/08/17 10:22:03;;;;;;;10.30;9.30;;;23.00;96.30;;;;;;5008557;28;21187;-68
2023/08/17 10:24:33;;;;;;;9.43;8.63;;;23.00;96.20;;;;;;5044805;28;20437;-69
2023/08/17 10:27:24;;;;;;;9.50;8.70;;;23.00;96.30;;;;;;5027663;28;20453;-68
2023/08/17 10:29:51;;;;;;;10.40;9.23;;;23.00;96.30;;;;;;5044841;28;20450;-68
2023/08/17 10:32:23;;;;;;;9.00;8.10;;;23.00;96.30;;;;;;5044348;28;20431;-69
2023/08/17 10:34:54;;;;;;;8.53;7.70;;;23.00;96.20;;;;;;5009940;28;20860;-68
2023/08/17 10:37:26;;;;;;;8.77;7.97;;;23.00;96.10;;;;;;5008275;28;20947;-67
2023/08/17 10:39:52;;;;;;;9.50;8.70;;;23.00;96.30;;;;;;5024311;28;21032;-68
2023/08/17 10:42:35;;;;;;;8.90;8.20;;;23.00;96.30;;;;;;5008629;28;20875;-68
2023/08/17 10:45:22;;;;;;;8.83;8.07;;;23.00;96.30;;;;;;5042785;28;20419;-68
2023/08/17 10:47:59;;;;;;;9.60;8.70;;;23.00;96.30;;;;;;5011812;28;20484;-68
2023/08/17 10:50:26;;;;;;;9.10;8.30;;;23.00;96.30;;;;;;5046332;28;20441;-68
2023/08/17 10:53:16;;;;;;;9.40;8.60;;;23.00;96.30;;;;;;5027912;28;21002;-68
2023/08/17 10:55:49;;;;;;;9.73;8.90;;;23.00;96.30;;;;;;5046002;28;20421;-68
2023/08/17 10:58:16;;;;;;;8.73;7.97;;;23.00;96.30;;;;;;5027822;28;20431;-68
2023/08/17 11:00:48;;;;;;;9.60;8.80;;;23.00;96.40;;;;;;5046179;28;20533;-68
2023/08/17 11:03:26;;;;;;;9.27;8.40;;;23.00;96.30;;;;;;5045741;28;20434;-67
2023/08/17 11:05:55;;;;;;;9.97;9.07;;;23.00;96.30;;;;;;5011114;28;20454;-68
2023/08/17 11:08:28;;;;;;;8.90;8.20;;;23.00;96.40;;;;;;5011317;28;21035;-68
2023/08/17 11:11:04;;;;;;;9.53;8.60;;;23.00;96.30;;;;;;5011460;28;20430;-69
2023/08/17 11:13:31;;;;;;;9.90;8.90;;;23.00;96.20;;;;;;5027286;28;20462;-68
2023/08/17 11:16:00;;;;;;;9.57;8.67;;;23.00;96.30;;;;;;5045335;28;20427;-68
2023/08/17 11:18:31;;;;;;;9.97;9.10;;;23.00;96.30;;;;;;5046289;28;20420;-68
2023/08/17 11:21:03;;;;;;;10.17;9.27;;;23.10;96.60;;;;;;5027846;28;20493;-68
2023/08/17 11:23:30;;;;;;;10.23;9.33;;;23.10;96.60;;;;;;5027264;28;21162;-68
2023/08/17 11:25:59;;;;;;;11.53;10.33;;;23.10;96.60;;;;;;5043671;28;20793;-68
2023/08/17 11:28:40;;;;;;;10.40;9.40;;;23.10;96.90;;;;;;5027422;28;20410;-68
2023/08/17 11:31:14;;;;;;;10.93;9.40;;;23.10;96.70;;;;;;5044661;28;20458;-68
2023/08/17 11:33:42;;;;;;;9.97;9.10;;;23.10;96.60;;;;;;5011149;28;20496;-68
2023/08/17 11:36:14;;;;;;;9.97;9.07;;;23.10;97.00;;;;;;4994158;28;20430;-69
2023/08/17 11:38:45;;;;;;;10.30;9.40;;;23.10;97.10;;;;;;5026573;28;20551;-68
2023/08/17 11:41:15;;;;;;;12.20;10.93;;;23.10;97.10;;;;;;5009179;28;21283;-67
2023/08/17 11:43:43;;;;;;;11.37;10.20;;;23.10;97.10;;;;;;5006383;28;20451;-68
2023/08/17 11:46:09;;;;;;;11.13;10.13;;;23.10;97.10;;;;;;5024376;28;20489;-68
2023/08/17 11:48:39;;;;;;;11.77;10.47;;;23.10;96.80;;;;;;4974333;28;20423;-68
2023/08/17 11:51:14;;;;;;;10.87;9.97;;;23.10;97.00;;;;;;5007958;28;20470;-68
2023/08/17 11:53:41;;;;;;;11.57;10.57;;;23.10;97.20;;;;;;5024784;28;20435;-68
2023/08/17 11:56:07;;;;;;;11.07;10.03;;;23.10;97.20;;;;;;5023720;28;20411;-68
2023/08/17 11:58:43;;;;;;;12.17;10.93;;;23.10;97.00;;;;;;5023509;28;20788;-67
2023/08/17 12:01:15;;;;;;;11.73;10.73;;;23.10;97.00;;;;;;5024136;28;21017;-68
2023/08/17 12:03:41;;;;;;;11.50;10.50;;;23.10;97.00;;;;;;5005810;28;20882;-68
2023/08/17 12:06:12;;;;;;;11.73;10.40;;;23.10;97.00;;;;;;4989764;28;20415;-68
2023/08/17 12:08:41;;;;;;;11.50;10.50;;;23.10;96.90;;;;;;4989692;28;20446;-68
2023/08/17 12:11:07;;;;;;;10.50;9.70;;;23.10;96.80;;;;;;5005912;28;20469;-68
2023/08/17 12:13:34;;;;;;;11.30;10.30;;;23.20;96.80;;;;;;4989558;28;20477;-68
2023/08/17 12:16:00;;;;;;;12.30;11.10;;;23.20;96.80;;;;;;5005678;28;20435;-68
2023/08/17 12:18:26;;;;;;;11.00;10.00;;;23.20;96.70;;;;;;4989537;28;20428;-68
2023/08/17 12:20:53;;;;;;;12.50;11.37;;;23.20;96.70;;;;;;5023519;28;20522;-68
2023/08/17 12:23:22;;;;;;;11.60;10.60;;;23.20;96.70;;;;;;5006493;28;20455;-68
2023/08/17 12:25:57;;;;;;;10.90;9.87;;;23.20;96.70;;;;;;5024061;28;20416;-69
2023/08/17 12:28:24;;;;;;;11.23;10.33;;;23.20;96.70;;;;;;4990280;28;20426;-69
2023/08/17 12:31:05;;;;;;;11.23;10.10;;;23.20;96.70;;;;;;4990712;28;20625;-68
2023/08/17 12:33:33;;;;;;;10.17;9.17;;;23.20;96.70;;;;;;4990060;28;20443;-68
2023/08/17 12:36:01;;;;;;;11.37;10.37;;;23.20;96.60;;;;;;4990126;28;20430;-69
2023/08/17 12:38:27;;;;;;;11.50;10.50;;;23.20;96.60;;;;;;5024111;28;20477;-68
2023/08/17 12:40:58;;;;;;;11.70;10.80;;;23.20;96.60;;;;;;5006415;28;20470;-68
2023/08/17 12:43:24;;;;;;;11.30;10.40;;;23.20;96.50;;;;;;5042839;28;20949;-68
2023/08/17 12:45:57;;;;;;;11.67;10.67;;;23.20;96.50;;;;;;5025273;28;20906;-68
2023/08/17 12:48:27;;;;;;;11.23;10.23;;;23.30;96.60;;;;;;5025509;28;21081;-68
2023/08/17 12:50:56;;;;;;;12.10;11.00;;;23.30;96.60;;;;;;5024737;28;20487;-68
2023/08/17 12:53:27;;;;;;;11.97;10.87;;;23.30;96.60;;;;;;5043567;28;20789;-67
2023/08/17 12:55:53;;;;;;;11.20;10.30;;;23.30;96.60;;;;;;5008918;28;20461;-68
2023/08/17 12:58:19;;;;;;;11.50;10.50;;;23.30;96.60;;;;;;5025247;28;20449;-68